sensor_id;sensor_type;location;lat;lon;timestamp;pressure;altitude;pressure_sealevel;temperature;humidity
14612;BME280;7392;52.078;11.650;2023-05-20T00:01:18;101822.75;;;11.29;81.98
14612;BME280;7392;52.078;11.650;2023-05-20T00:03:46;101821.84;;;11.30;81.98
14612;BME280;7392;52.078;11.650;2023-05-20T00:06:15;101815.69;;;11.33;82.13
14612;BME280;7392;52.078;11.650;2023-05-20T00:08:43;101805.94;;;11.33;81.62
14612;BME280;7392;52.078;11.650;2023-05-20T00:11:11;101810.41;;;11.34;81.60
14612;BME280;7392;52.078;11.650;2023-05-20T00:13:39;101798.00;;;11.36;81.70
14612;BME280;7392;52.078;11.650;2023-05-20T00:16:07;101806.00;;;11.38;81.80
14612;BME280;7392;52.078;11.650;2023-05-20T00:18:34;101802.44;;;11.39;81.91
14612;BME280;7392;52.078;11.650;2023-05-20T00:21:02;101806.94;;;11.41;81.96
14612;BME280;7392;52.078;11.650;2023-05-20T00:23:31;101806.97;;;11.46;82.05
14612;BME280;7392;52.078;11.650;2023-05-20T00:25:59;101799.00;;;11.48;81.82
14612;BME280;7392;52.078;11.650;2023-05-20T00:28:27;101805.25;;;11.50;81.83
14612;BME280;7392;52.078;11.650;2023-05-20T00:30:56;101803.47;;;11.50;81.98
14612;BME280;7392;52.078;11.650;2023-05-20T00:33:23;101797.28;;;11.53;81.88
14612;BME280;7392;52.078;11.650;2023-05-20T00:35:51;101807.97;;;11.57;82.18
14612;BME280;7392;52.078;11.650;2023-05-20T00:38:19;101797.34;;;11.59;82.04
14612;BME280;7392;52.078;11.650;2023-05-20T00:40:48;101793.84;;;11.62;82.23
14612;BME280;7392;52.078;11.650;2023-05-20T00:43:16;101805.38;;;11.64;82.12
14612;BME280;7392;52.078;11.650;2023-05-20T00:45:46;101793.88;;;11.66;82.21
14612;BME280;7392;52.078;11.650;2023-05-20T00:48:14;101789.47;;;11.67;82.55
14612;BME280;7392;52.078;11.650;2023-05-20T00:50:42;101789.44;;;11.68;82.75
14612;BME280;7392;52.078;11.650;2023-05-20T00:53:10;101783.25;;;11.69;82.31
14612;BME280;7392;52.078;11.650;2023-05-20T00:55:37;101787.72;;;11.70;82.37
14612;BME280;7392;52.078;11.650;2023-05-20T00:58:07;101789.50;;;11.73;82.58
14612;BME280;7392;52.078;11.650;2023-05-20T01:00:35;101793.06;;;11.75;82.88
14612;BME280;7392;52.078;11.650;2023-05-20T01:03:02;101788.66;;;11.77;83.34
14612;BME280;7392;52.078;11.650;2023-05-20T01:05:31;101792.22;;;11.77;83.36
14612;BME280;7392;52.078;11.650;2023-05-20T01:07:59;101785.13;;;11.79;83.29
14612;BME280;7392;52.078;11.650;2023-05-20T01:10:29;101778.94;;;11.82;83.51
14612;BME280;7392;52.078;11.650;2023-05-20T01:13:00;101779.84;;;11.84;83.19
14612;BME280;7392;52.078;11.650;2023-05-20T01:15:31;101778.09;;;11.86;83.19
14612;BME280;7392;52.078;11.650;2023-05-20T01:18:01;101778.13;;;11.89;82.87
14612;BME280;7392;52.078;11.650;2023-05-20T01:20:31;101777.28;;;11.92;83.28
14612;BME280;7392;52.078;11.650;2023-05-20T01:23:01;101774.66;;;11.95;83.21
14612;BME280;7392;52.078;11.650;2023-05-20T01:25:29;101775.53;;;11.97;82.99
14612;BME280;7392;52.078;11.650;2023-05-20T01:27:58;101777.34;;;11.98;82.77
14612;BME280;7392;52.078;11.650;2023-05-20T01:30:29;101764.94;;;12.00;82.65
14612;BME280;7392;52.078;11.650;2023-05-20T01:33:04;101762.28;;;12.03;82.46
14612;BME280;7392;52.078;11.650;2023-05-20T01:35:34;101759.63;;;12.03;82.14
14612;BME280;7392;52.078;11.650;2023-05-20T01:38:05;101763.19;;;12.05;82.09
14612;BME280;7392;52.078;11.650;2023-05-20T01:40:33;101763.19;;;12.07;82.00
14612;BME280;7392;52.078;11.650;2023-05-20T01:43:02;101765.03;;;12.09;81.85
14612;BME280;7392;52.078;11.650;2023-05-20T01:45:30;101763.22;;;12.10;81.79
14612;BME280;7392;52.078;11.650;2023-05-20T01:47:58;101764.16;;;12.13;81.90
14612;BME280;7392;52.078;11.650;2023-05-20T01:50:27;101761.47;;;12.13;81.97
14612;BME280;7392;52.078;11.650;2023-05-20T01:52:55;101765.94;;;12.14;81.68
14612;BME280;7392;52.078;11.650;2023-05-20T01:55:25;101762.38;;;12.15;81.67
14612;BME280;7392;52.078;11.650;2023-05-20T01:57:53;101760.63;;;12.18;81.97
14612;BME280;7392;52.078;11.650;2023-05-20T02:00:21;101754.41;;;12.17;81.76
14612;BME280;7392;52.078;11.650;2023-05-20T02:02:49;101764.19;;;12.18;81.79
14612;BME280;7392;52.078;11.650;2023-05-20T02:05:17;101757.06;;;12.19;81.58
14612;BME280;7392;52.078;11.650;2023-05-20T02:07:44;101757.06;;;12.19;81.56
14612;BME280;7392;52.078;11.650;2023-05-20T02:10:12;101752.63;;;12.19;81.40
14612;BME280;7392;52.078;11.650;2023-05-20T02:12:41;101755.28;;;12.19;81.92
14612;BME280;7392;52.078;11.650;2023-05-20T02:15:10;101754.44;;;12.20;81.78
14612;BME280;7392;52.078;11.650;2023-05-20T02:17:37;101749.09;;;12.20;81.75
14612;BME280;7392;52.078;11.650;2023-05-20T02:20:07;101757.97;;;12.19;81.53
14612;BME280;7392;52.078;11.650;2023-05-20T02:22:35;101758.84;;;12.21;81.70
14612;BME280;7392;52.078;11.650;2023-05-20T02:25:04;101757.06;;;12.19;81.93
14612;BME280;7392;52.078;11.650;2023-05-20T02:27:32;101758.88;;;12.20;81.90
14612;BME280;7392;52.078;11.650;2023-05-20T02:30:01;101756.22;;;12.20;81.78
14612;BME280;7392;52.078;11.650;2023-05-20T02:32:29;101757.97;;;12.19;81.70
14612;BME280;7392;52.078;11.650;2023-05-20T02:34:58;101754.41;;;12.19;81.84
14612;BME280;7392;52.078;11.650;2023-05-20T02:37:26;101749.97;;;12.19;81.95
14612;BME280;7392;52.078;11.650;2023-05-20T02:39:55;101756.22;;;12.20;81.79
14612;BME280;7392;52.078;11.650;2023-05-20T02:42:22;101752.63;;;12.19;81.70
14612;BME280;7392;52.078;11.650;2023-05-20T02:44:50;101754.44;;;12.20;81.77
14612;BME280;7392;52.078;11.650;2023-05-20T02:47:23;101749.97;;;12.18;81.58
14612;BME280;7392;52.078;11.650;2023-05-20T02:49:51;101753.53;;;12.18;81.70
14612;BME280;7392;52.078;11.650;2023-05-20T02:52:19;101749.09;;;12.19;81.86
14612;BME280;7392;52.078;11.650;2023-05-20T02:54:47;101751.75;;;12.19;81.68
14612;BME280;7392;52.078;11.650;2023-05-20T02:57:15;101749.97;;;12.18;81.84
14612;BME280;7392;52.078;11.650;2023-05-20T02:59:43;101756.19;;;12.16;81.73
14612;BME280;7392;52.078;11.650;2023-05-20T03:02:12;101752.59;;;12.16;82.42
14612;BME280;7392;52.078;11.650;2023-05-20T03:04:41;101744.63;;;12.14;82.41
14612;BME280;7392;52.078;11.650;2023-05-20T03:07:09;101745.53;;;12.15;82.50
14612;BME280;7392;52.078;11.650;2023-05-20T03:09:38;101754.38;;;12.14;82.25
14612;BME280;7392;52.078;11.650;2023-05-20T03:12:06;101756.16;;;12.15;82.63
14612;BME280;7392;52.078;11.650;2023-05-20T03:14:33;101749.97;;;12.14;82.79
14612;BME280;7392;52.078;11.650;2023-05-20T03:17:01;101761.47;;;12.13;82.67
14612;BME280;7392;52.078;11.650;2023-05-20T03:19:30;101752.63;;;12.14;83.05
14612;BME280;7392;52.078;11.650;2023-05-20T03:21:59;101764.16;;;12.13;83.23
14612;BME280;7392;52.078;11.650;2023-05-20T03:24:27;101767.69;;;12.14;83.05
14612;BME280;7392;52.078;11.650;2023-05-20T03:26:57;101773.00;;;12.12;83.43
14612;BME280;7392;52.078;11.650;2023-05-20T03:29:25;101768.59;;;12.13;83.52
14612;BME280;7392;52.078;11.650;2023-05-20T03:31:53;101764.13;;;12.12;83.49
14612;BME280;7392;52.078;11.650;2023-05-20T03:34:21;101771.25;;;12.11;83.85
14612;BME280;7392;52.078;11.650;2023-05-20T03:36:49;101765.94;;;12.13;83.88
14612;BME280;7392;52.078;11.650;2023-05-20T03:39:19;101772.13;;;12.12;83.93
14612;BME280;7392;52.078;11.650;2023-05-20T03:41:47;101769.44;;;12.10;83.86
14612;BME280;7392;52.078;11.650;2023-05-20T03:44:15;101766.78;;;12.10;84.03
14612;BME280;7392;52.078;11.650;2023-05-20T03:46:42;101766.78;;;12.10;84.12
14612;BME280;7392;52.078;11.650;2023-05-20T03:49:11;101765.91;;;12.10;84.17
14612;BME280;7392;52.078;11.650;2023-05-20T03:51:39;101770.31;;;12.11;84.36
14612;BME280;7392;52.078;11.650;2023-05-20T03:54:10;101770.31;;;12.11;84.54
14612;BME280;7392;52.078;11.650;2023-05-20T03:56:40;101773.00;;;12.11;84.59
14612;BME280;7392;52.078;11.650;2023-05-20T03:59:08;101773.00;;;12.11;84.56
14612;BME280;7392;52.078;11.650;2023-05-20T04:01:36;101778.31;;;12.09;84.61
14612;BME280;7392;52.078;11.650;2023-05-20T04:04:04;101786.31;;;12.11;84.97
14612;BME280;7392;52.078;11.650;2023-05-20T04:06:32;101776.53;;;12.10;84.93
14612;BME280;7392;52.078;11.650;2023-05-20T04:09:01;101778.31;;;12.09;85.32
14612;BME280;7392;52.078;11.650;2023-05-20T04:11:29;101772.06;;;12.07;85.32
14612;BME280;7392;52.078;11.650;2023-05-20T04:13:58;101766.75;;;12.09;85.56
14612;BME280;7392;52.078;11.650;2023-05-20T04:16:26;101767.69;;;12.09;85.79
14612;BME280;7392;52.078;11.650;2023-05-20T04:18:55;101766.75;;;12.09;85.83
14612;BME280;7392;52.078;11.650;2023-05-20T04:21:24;101770.34;;;12.09;86.09
14612;BME280;7392;52.078;11.650;2023-05-20T04:23:52;101759.69;;;12.08;86.05
14612;BME280;7392;52.078;11.650;2023-05-20T04:26:20;101759.69;;;12.08;86.47
14612;BME280;7392;52.078;11.650;2023-05-20T04:28:49;101756.13;;;12.10;86.27
14612;BME280;7392;52.078;11.650;2023-05-20T04:31:18;101758.81;;;12.12;86.70
14612;BME280;7392;52.078;11.650;2023-05-20T04:33:46;101757.91;;;12.11;86.69
14612;BME280;7392;52.078;11.650;2023-05-20T04:36:14;101753.47;;;12.12;86.89
14612;BME280;7392;52.078;11.650;2023-05-20T04:38:43;101750.84;;;12.13;87.10
14612;BME280;7392;52.078;11.650;2023-05-20T04:41:11;101754.38;;;12.14;86.95
14612;BME280;7392;52.078;11.650;2023-05-20T04:43:42;101751.72;;;12.15;87.34
14612;BME280;7392;52.078;11.650;2023-05-20T04:46:11;101749.97;;;12.18;87.55
14612;BME280;7392;52.078;11.650;2023-05-20T04:48:42;101753.56;;;12.20;87.58
14612;BME280;7392;52.078;11.650;2023-05-20T04:51:11;101757.97;;;12.21;87.55
14612;BME280;7392;52.078;11.650;2023-05-20T04:53:39;101758.88;;;12.20;87.58
14612;BME280;7392;52.078;11.650;2023-05-20T04:56:10;101759.75;;;12.20;87.75
14612;BME280;7392;52.078;11.650;2023-05-20T04:58:45;101761.53;;;12.21;87.81
14612;BME280;7392;52.078;11.650;2023-05-20T05:01:15;101750.88;;;12.20;87.79
14612;BME280;7392;52.078;11.650;2023-05-20T05:03:45;101754.44;;;12.20;87.75
14612;BME280;7392;52.078;11.650;2023-05-20T05:06:13;101759.78;;;12.22;87.88
14612;BME280;7392;52.078;11.650;2023-05-20T05:08:41;101754.44;;;12.22;88.10
14612;BME280;7392;52.078;11.650;2023-05-20T05:11:09;101761.53;;;12.23;88.42
14612;BME280;7392;52.078;11.650;2023-05-20T05:13:37;101759.78;;;12.23;88.38
14612;BME280;7392;52.078;11.650;2023-05-20T05:16:05;101762.44;;;12.23;88.43
14612;BME280;7392;52.078;11.650;2023-05-20T05:18:33;101773.09;;;12.23;88.13
14612;BME280;7392;52.078;11.650;2023-05-20T05:21:04;101760.66;;;12.24;88.77
14612;BME280;7392;52.078;11.650;2023-05-20T05:23:34;101766.88;;;12.26;88.56
14612;BME280;7392;52.078;11.650;2023-05-20T05:26:02;101769.56;;;12.27;88.94
14612;BME280;7392;52.078;11.650;2023-05-20T05:28:29;101767.78;;;12.28;89.03
14612;BME280;7392;52.078;11.650;2023-05-20T05:30:57;101761.59;;;12.29;88.79
14612;BME280;7392;52.078;11.650;2023-05-20T05:33:29;101760.72;;;12.28;88.83
14612;BME280;7392;52.078;11.650;2023-05-20T05:36:01;101760.72;;;12.30;88.91
14612;BME280;7392;52.078;11.650;2023-05-20T05:38:31;101759.81;;;12.31;88.77
14612;BME280;7392;52.078;11.650;2023-05-20T05:40:59;101758.97;;;12.33;89.20
14612;BME280;7392;52.078;11.650;2023-05-20T05:43:28;101755.41;;;12.34;88.98
14612;BME280;7392;52.078;11.650;2023-05-20T05:45:56;101759.88;;;12.37;89.33
14612;BME280;7392;52.078;11.650;2023-05-20T05:48:24;101755.47;;;12.41;89.03
14612;BME280;7392;52.078;11.650;2023-05-20T05:50:53;101752.81;;;12.44;89.15
14612;BME280;7392;52.078;11.650;2023-05-20T05:53:21;101754.59;;;12.48;88.90
14612;BME280;7392;52.078;11.650;2023-05-20T05:55:50;101757.31;;;12.56;89.00
14612;BME280;7392;52.078;11.650;2023-05-20T05:58:18;101754.69;;;12.62;89.08
14612;BME280;7392;52.078;11.650;2023-05-20T06:00:46;101752.94;;;12.70;89.28
14612;BME280;7392;52.078;11.650;2023-05-20T06:03:17;101758.31;;;12.79;88.82
14612;BME280;7392;52.078;11.650;2023-05-20T06:05:45;101755.66;;;12.84;88.85
14612;BME280;7392;52.078;11.650;2023-05-20T06:08:13;101761.94;;;12.90;88.40
14612;BME280;7392;52.078;11.650;2023-05-20T06:10:46;101763.72;;;12.96;88.22
14612;BME280;7392;52.078;11.650;2023-05-20T06:13:16;101771.75;;;13.01;87.90
14612;BME280;7392;52.078;11.650;2023-05-20T06:15:44;101758.44;;;13.04;88.09
14612;BME280;7392;52.078;11.650;2023-05-20T06:18:12;101766.44;;;13.10;87.89
14612;BME280;7392;52.078;11.650;2023-05-20T06:20:40;101762.91;;;13.16;87.94
14612;BME280;7392;52.078;11.650;2023-05-20T06:23:08;101759.34;;;13.20;88.19
14612;BME280;7392;52.078;11.650;2023-05-20T06:25:48;101757.59;;;13.26;87.99
14612;BME280;7392;52.078;11.650;2023-05-20T06:28:19;101760.34;;;13.33;87.92
14612;BME280;7392;52.078;11.650;2023-05-20T06:30:47;101758.56;;;13.38;87.74
14612;BME280;7392;52.078;11.650;2023-05-20T06:33:15;101754.13;;;13.47;87.67
14612;BME280;7392;52.078;11.650;2023-05-20T06:35:46;101748.81;;;13.57;87.45
14612;BME280;7392;52.078;11.650;2023-05-20T06:38:13;101752.38;;;13.67;87.51
14612;BME280;7392;52.078;11.650;2023-05-20T06:40:42;101744.38;;;13.79;87.08
14612;BME280;7392;52.078;11.650;2023-05-20T06:43:11;101754.16;;;13.88;86.79
14612;BME280;7392;52.078;11.650;2023-05-20T06:45:48;101746.16;;;13.98;86.43
14612;BME280;7392;52.078;11.650;2023-05-20T06:48:21;101747.91;;;14.07;86.02
14612;BME280;7392;52.078;11.650;2023-05-20T06:50:49;101743.47;;;14.17;85.71
14612;BME280;7392;52.078;11.650;2023-05-20T06:53:17;101747.00;;;14.24;85.33
14612;BME280;7392;52.078;11.650;2023-05-20T06:55:45;101738.09;;;14.32;85.46
14612;BME280;7392;52.078;11.650;2023-05-20T06:58:13;101737.19;;;14.43;85.50
14612;BME280;7392;52.078;11.650;2023-05-20T07:00:41;101743.41;;;14.51;84.36
14612;BME280;7392;52.078;11.650;2023-05-20T07:03:11;101742.47;;;14.58;84.21
14612;BME280;7392;52.078;11.650;2023-05-20T07:05:40;101741.59;;;14.65;83.84
14612;BME280;7392;52.078;11.650;2023-05-20T07:08:09;101739.78;;;14.73;84.03
14612;BME280;7392;52.078;11.650;2023-05-20T07:10:38;101724.59;;;14.83;83.60
14612;BME280;7392;52.078;11.650;2023-05-20T07:13:05;101728.13;;;14.91;83.14
14612;BME280;7392;52.078;11.650;2023-05-20T07:15:33;101730.75;;;15.01;82.78
14612;BME280;7392;52.078;11.650;2023-05-20T07:18:01;101722.69;;;15.08;82.06
14612;BME280;7392;52.078;11.650;2023-05-20T07:20:32;101722.66;;;15.16;82.28
14612;BME280;7392;52.078;11.650;2023-05-20T07:23:04;101723.50;;;15.21;81.83
14612;BME280;7392;52.078;11.650;2023-05-20T07:25:40;101714.59;;;15.25;80.78
14612;BME280;7392;52.078;11.650;2023-05-20T07:28:07;101710.97;;;15.32;81.26
14612;BME280;7392;52.078;11.650;2023-05-20T07:30:43;101701.09;;;15.41;81.20
14612;BME280;7392;52.078;11.650;2023-05-20T07:33:29;101701.91;;;15.49;81.01
14612;BME280;7392;52.078;11.650;2023-05-20T07:36:13;101699.19;;;15.55;80.06
14612;BME280;7392;52.078;11.650;2023-05-20T07:38:56;101698.25;;;15.58;79.64
14612;BME280;7392;52.078;11.650;2023-05-20T07:41:51;101701.78;;;15.63;79.52
14612;BME280;7392;52.078;11.650;2023-05-20T07:44:39;101703.53;;;15.70;79.68
14612;BME280;7392;52.078;11.650;2023-05-20T07:47:14;101706.16;;;15.75;79.07
14612;BME280;7392;52.078;11.650;2023-05-20T07:49:50;101705.28;;;15.79;78.84
14612;BME280;7392;52.078;11.650;2023-05-20T07:52:30;101700.78;;;15.84;78.93
14612;BME280;7392;52.078;11.650;2023-05-20T07:55:13;101706.09;;;15.87;78.54
14612;BME280;7392;52.078;11.650;2023-05-20T07:57:41;101709.69;;;15.86;77.47
14612;BME280;7392;52.078;11.650;2023-05-20T08:00:11;101696.28;;;15.87;77.55
14612;BME280;7392;52.078;11.650;2023-05-20T08:02:42;101706.97;;;15.91;77.13
14612;BME280;7392;52.078;11.650;2023-05-20T08:05:15;101700.75;;;15.88;76.87
14612;BME280;7392;52.078;11.650;2023-05-20T08:07:46;101702.50;;;15.91;77.23
14612;BME280;7392;52.078;11.650;2023-05-20T08:10:16;101703.34;;;15.96;77.68
14612;BME280;7392;52.078;11.650;2023-05-20T08:12:45;101700.59;;;16.02;77.74
14612;BME280;7392;52.078;11.650;2023-05-20T08:15:13;101704.16;;;16.06;77.38
14612;BME280;7392;52.078;11.650;2023-05-20T08:17:41;101707.69;;;16.06;76.15
14612;BME280;7392;52.078;11.650;2023-05-20T08:20:10;101696.09;;;16.07;76.50
14612;BME280;7392;52.078;11.650;2023-05-20T08:22:39;101696.03;;;16.11;76.73
14612;BME280;7392;52.078;11.650;2023-05-20T08:25:09;101695.13;;;16.13;76.24
14612;BME280;7392;52.078;11.650;2023-05-20T08:27:36;101694.25;;;16.14;76.44
14612;BME280;7392;52.078;11.650;2023-05-20T08:30:06;101695.97;;;16.18;76.41
14612;BME280;7392;52.078;11.650;2023-05-20T08:32:35;101695.91;;;16.24;76.55
14612;BME280;7392;52.078;11.650;2023-05-20T08:35:03;101686.94;;;16.29;76.68
14612;BME280;7392;52.078;11.650;2023-05-20T08:37:32;101683.31;;;16.31;75.97
14612;BME280;7392;52.078;11.650;2023-05-20T08:40:00;101690.47;;;16.32;75.26
14612;BME280;7392;52.078;11.650;2023-05-20T08:42:29;101690.44;;;16.35;75.46
14612;BME280;7392;52.078;11.650;2023-05-20T08:44:58;101693.09;;;16.38;75.45
14612;BME280;7392;52.078;11.650;2023-05-20T08:47:29;101701.03;;;16.43;75.38
14612;BME280;7392;52.078;11.650;2023-05-20T08:49:57;101699.25;;;16.47;75.46
14612;BME280;7392;52.078;11.650;2023-05-20T08:52:25;101688.44;;;16.53;75.51
14612;BME280;7392;52.078;11.650;2023-05-20T08:54:53;101687.47;;;16.58;75.76
14612;BME280;7392;52.078;11.650;2023-05-20T08:57:22;101689.25;;;16.59;75.38
14612;BME280;7392;52.078;11.650;2023-05-20T08:59:51;101685.69;;;16.59;75.25
14612;BME280;7392;52.078;11.650;2023-05-20T09:02:19;101686.59;;;16.56;75.12
14612;BME280;7392;52.078;11.650;2023-05-20T09:04:48;101683.94;;;16.55;75.05
14612;BME280;7392;52.078;11.650;2023-05-20T09:07:25;101684.84;;;16.55;75.16
14612;BME280;7392;52.078;11.650;2023-05-20T09:09:53;101680.38;;;16.54;74.80
14612;BME280;7392;52.078;11.650;2023-05-20T09:12:21;101694.66;;;16.55;74.88
14612;BME280;7392;52.078;11.650;2023-05-20T09:14:48;101684.84;;;16.55;74.91
14612;BME280;7392;52.078;11.650;2023-05-20T09:17:19;101686.59;;;16.55;74.61
14612;BME280;7392;52.078;11.650;2023-05-20T09:19:48;101683.91;;;16.56;74.02
14612;BME280;7392;52.078;11.650;2023-05-20T09:22:21;101693.72;;;16.60;74.45
14612;BME280;7392;52.078;11.650;2023-05-20T09:24:49;101681.16;;;16.64;74.40
14612;BME280;7392;52.078;11.650;2023-05-20T09:27:17;101683.75;;;16.70;75.32
14612;BME280;7392;52.078;11.650;2023-05-20T09:29:46;101681.97;;;16.71;74.96
14612;BME280;7392;52.078;11.650;2023-05-20T09:32:14;101675.78;;;16.66;73.97
14612;BME280;7392;52.078;11.650;2023-05-20T09:34:45;101688.28;;;16.63;73.70
14612;BME280;7392;52.078;11.650;2023-05-20T09:37:16;101687.41;;;16.63;73.86
14612;BME280;7392;52.078;11.650;2023-05-20T09:39:49;101680.22;;;16.65;74.22
14612;BME280;7392;52.078;11.650;2023-05-20T09:42:21;101683.81;;;16.67;74.70
14612;BME280;7392;52.078;11.650;2023-05-20T09:44:52;101677.47;;;16.73;74.99
14612;BME280;7392;52.078;11.650;2023-05-20T09:47:22;101678.28;;;16.79;74.85
14612;BME280;7392;52.078;11.650;2023-05-20T09:49:52;101676.38;;;16.89;75.27
14612;BME280;7392;52.078;11.650;2023-05-20T09:52:20;101670.09;;;16.92;74.26
14612;BME280;7392;52.078;11.650;2023-05-20T09:54:49;101669.13;;;16.94;73.69
14612;BME280;7392;52.078;11.650;2023-05-20T09:57:17;101669.09;;;16.97;73.43
14612;BME280;7392;52.078;11.650;2023-05-20T09:59:45;101665.53;;;16.98;73.75
14612;BME280;7392;52.078;11.650;2023-05-20T10:02:14;101677.06;;;17.05;74.60
14612;BME280;7392;52.078;11.650;2023-05-20T10:04:46;101663.47;;;17.16;74.88
14612;BME280;7392;52.078;11.650;2023-05-20T10:07:48;101665.13;;;17.25;74.87
14612;BME280;7392;52.078;11.650;2023-05-20T10:10:26;101665.06;;;17.28;73.62
14612;BME280;7392;52.078;11.650;2023-05-20T10:13:05;101660.56;;;17.30;72.71
14612;BME280;7392;52.078;11.650;2023-05-20T10:15:54;101657.00;;;17.29;72.35
14612;BME280;7392;52.078;11.650;2023-05-20T10:18:40;101661.50;;;17.29;72.08
14612;BME280;7392;52.078;11.650;2023-05-20T10:21:27;101661.53;;;17.26;71.17
14612;BME280;7392;52.078;11.650;2023-05-20T10:24:04;101655.28;;;17.25;71.64
14612;BME280;7392;52.078;11.650;2023-05-20T10:26:41;101657.06;;;17.25;71.83
14612;BME280;7392;52.078;11.650;2023-05-20T10:29:16;101648.94;;;17.31;72.48
14612;BME280;7392;52.078;11.650;2023-05-20T10:31:56;101646.06;;;17.42;73.08
14612;BME280;7392;52.078;11.650;2023-05-20T10:34:47;101650.38;;;17.52;72.73
14612;BME280;7392;52.078;11.650;2023-05-20T10:37:39;101644.88;;;17.60;72.96
14612;BME280;7392;52.078;11.650;2023-05-20T10:40:12;101638.47;;;17.67;72.56
14612;BME280;7392;52.078;11.650;2023-05-20T10:42:44;101635.63;;;17.76;72.17
14612;BME280;7392;52.078;11.650;2023-05-20T10:45:31;101636.44;;;17.80;71.34
14612;BME280;7392;52.078;11.650;2023-05-20T10:48:08;101631.88;;;17.86;71.31
14612;BME280;7392;52.078;11.650;2023-05-20T10:51:03;101644.38;;;17.90;71.01
14612;BME280;7392;52.078;11.650;2023-05-20T10:53:40;101627.31;;;17.91;70.30
14612;BME280;7392;52.078;11.650;2023-05-20T10:56:21;101621.00;;;17.94;70.89
14612;BME280;7392;52.078;11.650;2023-05-20T10:58:52;101626.25;;;18.00;70.87
14612;BME280;7392;52.078;11.650;2023-05-20T11:01:36;101621.66;;;18.05;70.34
14612;BME280;7392;52.078;11.650;2023-05-20T11:04:05;101607.25;;;18.11;70.75
14612;BME280;7392;52.078;11.650;2023-05-20T11:06:37;101608.88;;;18.18;70.49
14612;BME280;7392;52.078;11.650;2023-05-20T11:09:11;101610.28;;;18.36;71.19
14612;BME280;7392;52.078;11.650;2023-05-20T11:11:48;101607.09;;;18.61;70.50
14612;BME280;7392;52.078;11.650;2023-05-20T11:14:20;101596.84;;;18.77;69.87
14612;BME280;7392;52.078;11.650;2023-05-20T11:16:53;101592.28;;;18.80;68.84
14612;BME280;7392;52.078;11.650;2023-05-20T11:19:27;101588.63;;;18.86;69.05
14612;BME280;7392;52.078;11.650;2023-05-20T11:22:03;101578.41;;;19.00;69.18
14612;BME280;7392;52.078;11.650;2023-05-20T11:24:34;101578.28;;;19.05;68.94
14612;BME280;7392;52.078;11.650;2023-05-20T11:27:07;101572.91;;;19.05;67.98
14612;BME280;7392;52.078;11.650;2023-05-20T11:29:40;101577.88;;;19.22;67.79
14612;BME280;7392;52.078;11.650;2023-05-20T11:32:16;101567.03;;;19.59;68.11
14612;BME280;7392;52.078;11.650;2023-05-20T11:34:51;101569.31;;;20.08;68.58
14612;BME280;7392;52.078;11.650;2023-05-20T11:37:29;101558.75;;;20.31;67.31
14612;BME280;7392;52.078;11.650;2023-05-20T11:40:05;101560.31;;;20.39;65.77
14612;BME280;7392;52.078;11.650;2023-05-20T11:42:45;101559.53;;;20.35;63.96
14612;BME280;7392;52.078;11.650;2023-05-20T11:45:23;101550.44;;;20.37;64.21
14612;BME280;7392;52.078;11.650;2023-05-20T11:48:01;101551.38;;;20.36;63.48
14612;BME280;7392;52.078;11.650;2023-05-20T11:50:36;101551.38;;;20.36;64.09
14612;BME280;7392;52.078;11.650;2023-05-20T11:53:09;101560.13;;;20.45;64.53
14612;BME280;7392;52.078;11.650;2023-05-20T11:55:52;101563.22;;;20.61;64.58
14612;BME280;7392;52.078;11.650;2023-05-20T11:58:31;101564.63;;;21.02;63.84
14612;BME280;7392;52.078;11.650;2023-05-20T12:01:04;101552.34;;;21.47;62.58
14612;BME280;7392;52.078;11.650;2023-05-20T12:04:11;101556.22;;;21.65;61.17
14612;BME280;7392;52.078;11.650;2023-05-20T12:06:52;101558.66;;;21.73;60.45
14612;BME280;7392;52.078;11.650;2023-05-20T12:09:24;101546.69;;;21.80;59.68
14612;BME280;7392;52.078;11.650;2023-05-20T12:11:57;101544.03;;;21.78;58.34
14612;BME280;7392;52.078;11.650;2023-05-20T12:14:32;101536.19;;;21.71;58.46
14612;BME280;7392;52.078;11.650;2023-05-20T12:17:01;101538.22;;;21.64;58.04
14612;BME280;7392;52.078;11.650;2023-05-20T12:19:33;101519.09;;;21.70;57.91
14612;BME280;7392;52.078;11.650;2023-05-20T12:22:10;101523.88;;;21.87;58.29
14612;BME280;7392;52.078;11.650;2023-05-20T12:24:42;101521.66;;;22.22;59.19
14612;BME280;7392;52.078;11.650;2023-05-20T12:27:33;101508.91;;;22.71;59.94
14612;BME280;7392;52.078;11.650;2023-05-20T12:30:10;101508.16;;;23.12;59.82
14612;BME280;7392;52.078;11.650;2023-05-20T12:32:44;101507.69;;;23.43;58.06
14612;BME280;7392;52.078;11.650;2023-05-20T12:35:35;101502.06;;;23.68;55.71
14612;BME280;7392;52.078;11.650;2023-05-20T12:38:12;101497.44;;;23.91;55.40
14612;BME280;7392;52.078;11.650;2023-05-20T12:40:52;101490.72;;;24.19;55.13
14612;BME280;7392;52.078;11.650;2023-05-20T12:43:23;101486.75;;;24.45;55.43
14612;BME280;7392;52.078;11.650;2023-05-20T12:45:59;101476.63;;;24.68;54.62
14612;BME280;7392;52.078;11.650;2023-05-20T12:48:38;101492.53;;;24.75;52.00
14612;BME280;7392;52.078;11.650;2023-05-20T12:51:15;101483.16;;;24.63;51.24
14612;BME280;7392;52.078;11.650;2023-05-20T12:53:54;101486.41;;;24.89;52.09
14612;BME280;7392;52.078;11.650;2023-05-20T12:56:31;101485.53;;;25.24;51.99
14612;BME280;7392;52.078;11.650;2023-05-20T12:59:03;101474.09;;;25.52;51.47
14612;BME280;7392;52.078;11.650;2023-05-20T13:01:35;101473.03;;;25.72;50.64
14612;BME280;7392;52.078;11.650;2023-05-20T13:04:15;101489.78;;;25.64;49.25
14612;BME280;7392;52.078;11.650;2023-05-20T13:06:54;101474.94;;;25.54;48.43
14612;BME280;7392;52.078;11.650;2023-05-20T13:09:28;101476.19;;;25.64;48.47
14612;BME280;7392;52.078;11.650;2023-05-20T13:12:02;101466.34;;;25.62;47.05